sensor_id;sensor_type;location;lat;lon;timestamp;P1;durP1;ratioP1;P2;durP2;ratioP2
18685;SDS011;9473;52.342;13.110;2023-07-16T00:00:41;5.93;;;3.55;;
18685;SDS011;9473;52.342;13.110;2023-07-16T00:03:08;6.40;;;3.55;;
18685;SDS011;9473;52.342;13.110;2023-07-16T00:05:36;6.32;;;3.53;;
18685;SDS011;9473;52.342;13.110;2023-07-16T00:08:03;4.82;;;3.30;;
18685;SDS011;9473;52.342;13.110;2023-07-16T00:10:32;4.13;;;3.40;;
18685;SDS011;9473;52.342;13.110;2023-07-16T00:12:59;7.90;;;3.90;;
18685;SDS011;9473;52.342;13.110;2023-07-16T00:15:27;5.07;;;3.75;;
18685;SDS011;9473;52.342;13.110;2023-07-16T00:17:54;7.38;;;4.00;;
18685;SDS011;9473;52.342;13.110;2023-07-16T00:20:21;4.90;;;3.50;;
18685;SDS011;9473;52.342;13.110;2023-07-16T00:22:49;4.88;;;3.58;;
18685;SDS011;9473;52.342;13.110;2023-07-16T00:25:16;7.57;;;4.03;;
18685;SDS011;9473;52.342;13.110;2023-07-16T00:27:43;5.50;;;4.10;;
18685;SDS011;9473;52.342;13.110;2023-07-16T00:30:10;4.50;;;3.70;;
18685;SDS011;9473;52.342;13.110;2023-07-16T00:32:38;8.75;;;3.80;;
18685;SDS011;9473;52.342;13.110;2023-07-16T00:35:05;5.78;;;3.67;;
18685;SDS011;9473;52.342;13.110;2023-07-16T00:37:33;6.25;;;3.97;;
18685;SDS011;9473;52.342;13.110;2023-07-16T00:40:00;6.40;;;3.97;;
18685;SDS011;9473;52.342;13.110;2023-07-16T00:42:27;5.00;;;3.75;;
18685;SDS011;9473;52.342;13.110;2023-07-16T00:44:53;7.72;;;4.15;;
18685;SDS011;9473;52.342;13.110;2023-07-16T00:47:21;4.88;;;3.70;;
18685;SDS011;9473;52.342;13.110;2023-07-16T00:49:49;7.75;;;4.18;;
18685;SDS011;9473;52.342;13.110;2023-07-16T00:52:18;4.57;;;3.70;;
18685;SDS011;9473;52.342;13.110;2023-07-16T00:54:45;6.22;;;3.60;;
18685;SDS011;9473;52.342;13.110;2023-07-16T00:57:12;6.38;;;3.97;;
18685;SDS011;9473;52.342;13.110;2023-07-16T00:59:39;5.50;;;4.35;;
18685;SDS011;9473;52.342;13.110;2023-07-16T01:02:06;4.43;;;3.67;;
18685;SDS011;9473;52.342;13.110;2023-07-16T01:04:33;5.82;;;4.50;;
18685;SDS011;9473;52.342;13.110;2023-07-16T01:07:01;7.25;;;4.05;;
18685;SDS011;9473;52.342;13.110;2023-07-16T01:09:31;6.70;;;4.18;;
18685;SDS011;9473;52.342;13.110;2023-07-16T01:12:02;8.27;;;4.32;;
18685;SDS011;9473;52.342;13.110;2023-07-16T01:14:29;7.63;;;3.83;;
18685;SDS011;9473;52.342;13.110;2023-07-16T01:16:57;9.68;;;4.00;;
18685;SDS011;9473;52.342;13.110;2023-07-16T01:19:24;5.72;;;4.03;;
18685;SDS011;9473;52.342;13.110;2023-07-16T01:21:51;6.80;;;4.18;;
18685;SDS011;9473;52.342;13.110;2023-07-16T01:24:30;6.38;;;3.78;;
18685;SDS011;9473;52.342;13.110;2023-07-16T01:27:04;9.10;;;4.18;;
18685;SDS011;9473;52.342;13.110;2023-07-16T01:29:36;7.18;;;4.13;;
18685;SDS011;9473;52.342;13.110;2023-07-16T01:32:03;6.90;;;4.07;;
18685;SDS011;9473;52.342;13.110;2023-07-16T01:34:32;6.90;;;4.25;;
18685;SDS011;9473;52.342;13.110;2023-07-16T01:37:00;7.63;;;4.20;;
18685;SDS011;9473;52.342;13.110;2023-07-16T01:39:27;4.53;;;3.60;;
18685;SDS011;9473;52.342;13.110;2023-07-16T01:41:54;7.28;;;4.05;;
18685;SDS011;9473;52.342;13.110;2023-07-16T01:44:21;4.53;;;3.33;;
18685;SDS011;9473;52.342;13.110;2023-07-16T01:46:53;5.28;;;3.10;;
18685;SDS011;9473;52.342;13.110;2023-07-16T01:49:24;3.28;;;2.70;;
18685;SDS011;9473;52.342;13.110;2023-07-16T01:51:51;4.22;;;2.78;;
18685;SDS011;9473;52.342;13.110;2023-07-16T01:54:18;4.90;;;2.00;;
18685;SDS011;9473;52.342;13.110;2023-07-16T01:56:45;3.70;;;2.20;;
18685;SDS011;9473;52.342;13.110;2023-07-16T01:59:12;4.93;;;2.28;;
18685;SDS011;9473;52.342;13.110;2023-07-16T02:01:39;4.90;;;2.17;;
18685;SDS011;9473;52.342;13.110;2023-07-16T02:04:07;2.60;;;1.67;;
18685;SDS011;9473;52.342;13.110;2023-07-16T02:06:34;3.35;;;1.90;;
18685;SDS011;9473;52.342;13.110;2023-07-16T02:09:01;3.20;;;1.70;;
18685;SDS011;9473;52.342;13.110;2023-07-16T02:11:28;3.38;;;1.70;;
18685;SDS011;9473;52.342;13.110;2023-07-16T02:13:55;3.20;;;1.92;;
18685;SDS011;9473;52.342;13.110;2023-07-16T02:16:22;3.80;;;1.83;;
18685;SDS011;9473;52.342;13.110;2023-07-16T02:18:49;5.05;;;2.08;;
18685;SDS011;9473;52.342;13.110;2023-07-16T02:21:17;4.22;;;1.83;;
18685;SDS011;9473;52.342;13.110;2023-07-16T02:23:44;3.38;;;2.00;;
18685;SDS011;9473;52.342;13.110;2023-07-16T02:26:11;2.83;;;1.77;;
18685;SDS011;9473;52.342;13.110;2023-07-16T02:28:38;3.63;;;2.17;;
18685;SDS011;9473;52.342;13.110;2023-07-16T02:31:05;4.05;;;2.40;;
18685;SDS011;9473;52.342;13.110;2023-07-16T02:33:32;3.22;;;2.17;;
18685;SDS011;9473;52.342;13.110;2023-07-16T02:35:59;3.60;;;2.35;;
18685;SDS011;9473;52.342;13.110;2023-07-16T02:38:27;3.47;;;2.10;;
18685;SDS011;9473;52.342;13.110;2023-07-16T02:40:54;5.32;;;2.20;;
18685;SDS011;9473;52.342;13.110;2023-07-16T02:43:21;3.88;;;2.17;;
18685;SDS011;9473;52.342;13.110;2023-07-16T02:45:48;3.97;;;2.15;;
18685;SDS011;9473;52.342;13.110;2023-07-16T02:48:15;5.72;;;2.25;;
18685;SDS011;9473;52.342;13.110;2023-07-16T02:50:42;3.25;;;2.10;;
18685;SDS011;9473;52.342;13.110;2023-07-16T02:53:09;3.63;;;2.20;;
18685;SDS011;9473;52.342;13.110;2023-07-16T02:55:37;4.15;;;2.42;;
18685;SDS011;9473;52.342;13.110;2023-07-16T02:58:04;5.47;;;2.35;;
18685;SDS011;9473;52.342;13.110;2023-07-16T03:00:31;4.00;;;2.25;;
18685;SDS011;9473;52.342;13.110;2023-07-16T03:02:58;4.03;;;2.00;;
18685;SDS011;9473;52.342;13.110;2023-07-16T03:05:25;2.63;;;1.85;;
18685;SDS011;9473;52.342;13.110;2023-07-16T03:07:52;3.95;;;2.33;;
18685;SDS011;9473;52.342;13.110;2023-07-16T03:10:19;4.28;;;2.25;;
18685;SDS011;9473;52.342;13.110;2023-07-16T03:12:47;3.30;;;2.40;;
18685;SDS011;9473;52.342;13.110;2023-07-16T03:15:14;4.30;;;2.47;;
18685;SDS011;9473;52.342;13.110;2023-07-16T03:17:41;3.08;;;1.85;;
18685;SDS011;9473;52.342;13.110;2023-07-16T03:20:09;4.07;;;2.58;;
18685;SDS011;9473;52.342;13.110;2023-07-16T03:22:36;4.45;;;2.78;;
18685;SDS011;9473;52.342;13.110;2023-07-16T03:25:03;2.92;;;2.00;;
18685;SDS011;9473;52.342;13.110;2023-07-16T03:27:30;4.70;;;2.80;;
18685;SDS011;9473;52.342;13.110;2023-07-16T03:29:58;5.70;;;2.70;;
18685;SDS011;9473;52.342;13.110;2023-07-16T03:32:25;5.13;;;2.78;;
18685;SDS011;9473;52.342;13.110;2023-07-16T03:34:52;5.55;;;2.80;;
18685;SDS011;9473;52.342;13.110;2023-07-16T03:37:19;3.72;;;2.80;;
18685;SDS011;9473;52.342;13.110;2023-07-16T03:39:46;4.47;;;2.72;;
18685;SDS011;9473;52.342;13.110;2023-07-16T03:42:13;3.55;;;2.70;;
18685;SDS011;9473;52.342;13.110;2023-07-16T03:44:40;3.95;;;2.80;;
18685;SDS011;9473;52.342;13.110;2023-07-16T03:47:08;5.72;;;3.03;;
18685;SDS011;9473;52.342;13.110;2023-07-16T03:49:35;4.68;;;2.95;;
18685;SDS011;9473;52.342;13.110;2023-07-16T03:52:02;5.75;;;3.10;;
18685;SDS011;9473;52.342;13.110;2023-07-16T03:54:29;4.50;;;2.95;;
18685;SDS011;9473;52.342;13.110;2023-07-16T03:56:56;4.38;;;2.72;;
18685;SDS011;9473;52.342;13.110;2023-07-16T03:59:23;4.88;;;3.28;;
18685;SDS011;9473;52.342;13.110;2023-07-16T04:01:50;5.38;;;2.95;;
18685;SDS011;9473;52.342;13.110;2023-07-16T04:04:18;5.32;;;3.08;;
18685;SDS011;9473;52.342;13.110;2023-07-16T04:06:45;5.10;;;3.30;;
18685;SDS011;9473;52.342;13.110;2023-07-16T04:09:12;4.05;;;3.08;;
18685;SDS011;9473;52.342;13.110;2023-07-16T04:11:39;5.93;;;3.28;;
18685;SDS011;9473;52.342;13.110;2023-07-16T04:14:06;4.95;;;3.35;;
18685;SDS011;9473;52.342;13.110;2023-07-16T04:16:33;4.95;;;3.03;;
18685;SDS011;9473;52.342;13.110;2023-07-16T04:19:00;7.47;;;3.00;;
18685;SDS011;9473;52.342;13.110;2023-07-16T04:21:28;4.18;;;3.20;;
18685;SDS011;9473;52.342;13.110;2023-07-16T04:23:55;5.28;;;3.13;;
18685;SDS011;9473;52.342;13.110;2023-07-16T04:26:22;4.70;;;3.30;;
18685;SDS011;9473;52.342;13.110;2023-07-16T04:28:49;5.85;;;3.75;;
18685;SDS011;9473;52.342;13.110;2023-07-16T04:31:16;6.85;;;3.42;;
18685;SDS011;9473;52.342;13.110;2023-07-16T04:33:43;4.57;;;3.35;;
18685;SDS011;9473;52.342;13.110;2023-07-16T04:36:10;4.60;;;3.50;;
18685;SDS011;9473;52.342;13.110;2023-07-16T04:38:38;5.85;;;3.47;;
18685;SDS011;9473;52.342;13.110;2023-07-16T04:41:05;7.40;;;3.53;;
18685;SDS011;9473;52.342;13.110;2023-07-16T04:43:32;6.35;;;3.67;;
18685;SDS011;9473;52.342;13.110;2023-07-16T04:45:59;6.82;;;3.58;;
18685;SDS011;9473;52.342;13.110;2023-07-16T04:48:26;4.55;;;3.58;;
18685;SDS011;9473;52.342;13.110;2023-07-16T04:50:52;7.07;;;3.78;;
18685;SDS011;9473;52.342;13.110;2023-07-16T04:53:21;5.75;;;3.78;;
18685;SDS011;9473;52.342;13.110;2023-07-16T04:55:49;4.97;;;3.50;;
18685;SDS011;9473;52.342;13.110;2023-07-16T04:58:16;5.95;;;3.28;;
18685;SDS011;9473;52.342;13.110;2023-07-16T05:00:43;5.18;;;3.33;;
18685;SDS011;9473;52.342;13.110;2023-07-16T05:03:10;4.40;;;3.08;;
18685;SDS011;9473;52.342;13.110;2023-07-16T05:05:37;6.78;;;3.85;;
18685;SDS011;9473;52.342;13.110;2023-07-16T05:08:04;4.43;;;3.08;;
18685;SDS011;9473;52.342;13.110;2023-07-16T05:10:32;9.57;;;3.80;;
18685;SDS011;9473;52.342;13.110;2023-07-16T05:13:01;6.07;;;3.20;;
18685;SDS011;9473;52.342;13.110;2023-07-16T05:15:28;4.57;;;3.40;;
18685;SDS011;9473;52.342;13.110;2023-07-16T05:17:55;5.20;;;3.53;;
18685;SDS011;9473;52.342;13.110;2023-07-16T05:20:23;5.82;;;3.10;;
18685;SDS011;9473;52.342;13.110;2023-07-16T05:22:50;4.95;;;3.50;;
18685;SDS011;9473;52.342;13.110;2023-07-16T05:25:17;5.60;;;3.40;;
18685;SDS011;9473;52.342;13.110;2023-07-16T05:27:44;4.43;;;2.60;;
18685;SDS011;9473;52.342;13.110;2023-07-16T05:30:12;5.78;;;2.92;;
18685;SDS011;9473;52.342;13.110;2023-07-16T05:32:40;4.85;;;3.20;;
18685;SDS011;9473;52.342;13.110;2023-07-16T05:35:07;6.63;;;2.83;;
18685;SDS011;9473;52.342;13.110;2023-07-16T05:37:34;8.55;;;3.50;;
18685;SDS011;9473;52.342;13.110;2023-07-16T05:40:01;6.03;;;3.30;;
18685;SDS011;9473;52.342;13.110;2023-07-16T05:42:28;5.47;;;3.20;;
18685;SDS011;9473;52.342;13.110;2023-07-16T05:44:55;4.68;;;3.35;;
18685;SDS011;9473;52.342;13.110;2023-07-16T05:47:24;5.15;;;3.33;;
18685;SDS011;9473;52.342;13.110;2023-07-16T05:49:50;8.35;;;3.40;;
18685;SDS011;9473;52.342;13.110;2023-07-16T05:52:17;5.88;;;2.83;;
18685;SDS011;9473;52.342;13.110;2023-07-16T05:54:44;5.90;;;3.17;;
18685;SDS011;9473;52.342;13.110;2023-07-16T05:57:11;4.75;;;3.00;;
18685;SDS011;9473;52.342;13.110;2023-07-16T05:59:38;4.53;;;3.00;;
18685;SDS011;9473;52.342;13.110;2023-07-16T06:02:05;5.65;;;3.03;;
18685;SDS011;9473;52.342;13.110;2023-07-16T06:04:34;6.72;;;3.10;;
18685;SDS011;9473;52.342;13.110;2023-07-16T06:07:02;6.20;;;3.10;;
18685;SDS011;9473;52.342;13.110;2023-07-16T06:09:29;6.18;;;3.30;;
18685;SDS011;9473;52.342;13.110;2023-07-16T06:11:56;4.28;;;3.15;;
18685;SDS011;9473;52.342;13.110;2023-07-16T06:14:23;6.57;;;2.88;;
18685;SDS011;9473;52.342;13.110;2023-07-16T06:16:50;4.30;;;3.53;;
18685;SDS011;9473;52.342;13.110;2023-07-16T06:19:17;5.85;;;3.10;;
18685;SDS011;9473;52.342;13.110;2023-07-16T06:21:45;4.32;;;3.10;;
18685;SDS011;9473;52.342;13.110;2023-07-16T06:24:12;7.18;;;3.33;;
18685;SDS011;9473;52.342;13.110;2023-07-16T06:26:39;5.70;;;3.25;;
18685;SDS011;9473;52.342;13.110;2023-07-16T06:29:06;5.63;;;2.80;;
18685;SDS011;9473;52.342;13.110;2023-07-16T06:31:33;3.67;;;2.75;;
18685;SDS011;9473;52.342;13.110;2023-07-16T06:34:01;4.40;;;2.72;;
18685;SDS011;9473;52.342;13.110;2023-07-16T06:36:28;3.88;;;2.70;;
18685;SDS011;9473;52.342;13.110;2023-07-16T06:38:56;5.00;;;2.60;;
18685;SDS011;9473;52.342;13.110;2023-07-16T06:41:25;5.47;;;2.70;;
18685;SDS011;9473;52.342;13.110;2023-07-16T06:43:52;5.07;;;2.88;;
18685;SDS011;9473;52.342;13.110;2023-07-16T06:46:19;3.88;;;2.40;;
18685;SDS011;9473;52.342;13.110;2023-07-16T06:48:45;4.90;;;3.10;;
18685;SDS011;9473;52.342;13.110;2023-07-16T06:51:12;5.38;;;3.00;;
18685;SDS011;9473;52.342;13.110;2023-07-16T06:53:39;5.63;;;2.90;;
18685;SDS011;9473;52.342;13.110;2023-07-16T06:56:07;4.78;;;2.85;;
18685;SDS011;9473;52.342;13.110;2023-07-16T06:58:34;4.20;;;2.75;;
18685;SDS011;9473;52.342;13.110;2023-07-16T07:01:01;4.78;;;2.72;;
18685;SDS011;9473;52.342;13.110;2023-07-16T07:03:28;4.05;;;2.90;;
18685;SDS011;9473;52.342;13.110;2023-07-16T07:05:55;4.28;;;2.80;;
18685;SDS011;9473;52.342;13.110;2023-07-16T07:08:22;4.80;;;2.65;;
18685;SDS011;9473;52.342;13.110;2023-07-16T07:10:49;5.32;;;2.80;;
18685;SDS011;9473;52.342;13.110;2023-07-16T07:13:17;4.45;;;3.05;;
18685;SDS011;9473;52.342;13.110;2023-07-16T07:15:44;3.78;;;2.80;;
18685;SDS011;9473;52.342;13.110;2023-07-16T07:18:11;6.85;;;2.90;;
18685;SDS011;9473;52.342;13.110;2023-07-16T07:20:39;4.05;;;2.65;;
18685;SDS011;9473;52.342;13.110;2023-07-16T07:23:06;4.50;;;2.40;;
18685;SDS011;9473;52.342;13.110;2023-07-16T07:25:33;5.28;;;2.72;;
18685;SDS011;9473;52.342;13.110;2023-07-16T07:28:00;5.30;;;2.67;;
18685;SDS011;9473;52.342;13.110;2023-07-16T07:30:28;4.20;;;2.80;;
18685;SDS011;9473;52.342;13.110;2023-07-16T07:32:55;4.25;;;2.70;;
18685;SDS011;9473;52.342;13.110;2023-07-16T07:35:22;5.00;;;2.50;;
18685;SDS011;9473;52.342;13.110;2023-07-16T07:37:49;5.38;;;2.70;;
18685;SDS011;9473;52.342;13.110;2023-07-16T07:40:16;3.92;;;2.35;;
18685;SDS011;9473;52.342;13.110;2023-07-16T07:42:43;4.22;;;2.55;;
18685;SDS011;9473;52.342;13.110;2023-07-16T07:45:10;6.97;;;2.65;;
18685;SDS011;9473;52.342;13.110;2023-07-16T07:47:38;4.03;;;2.60;;
18685;SDS011;9473;52.342;13.110;2023-07-16T07:50:05;3.55;;;2.67;;
18685;SDS011;9473;52.342;13.110;2023-07-16T07:52:32;3.72;;;2.50;;
18685;SDS011;9473;52.342;13.110;2023-07-16T07:54:59;4.50;;;2.35;;
18685;SDS011;9473;52.342;13.110;2023-07-16T07:57:26;3.35;;;2.53;;
18685;SDS011;9473;52.342;13.110;2023-07-16T07:59:53;4.95;;;2.85;;
18685;SDS011;9473;52.342;13.110;2023-07-16T08:02:22;3.45;;;2.22;;
18685;SDS011;9473;52.342;13.110;2023-07-16T08:04:51;3.42;;;2.10;;
18685;SDS011;9473;52.342;13.110;2023-07-16T08:07:18;4.05;;;1.60;;
18685;SDS011;9473;52.342;13.110;2023-07-16T08:09:45;2.55;;;1.60;;
18685;SDS011;9473;52.342;13.110;2023-07-16T08:12:11;3.45;;;1.58;;
18685;SDS011;9473;52.342;13.110;2023-07-16T08:14:38;3.10;;;1.50;;
18685;SDS011;9473;52.342;13.110;2023-07-16T08:17:06;2.42;;;1.55;;
18685;SDS011;9473;52.342;13.110;2023-07-16T08:19:33;2.47;;;1.50;;
18685;SDS011;9473;52.342;13.110;2023-07-16T08:22:01;3.65;;;2.33;;
18685;SDS011;9473;52.342;13.110;2023-07-16T08:24:28;4.32;;;1.63;;
18685;SDS011;9473;52.342;13.110;2023-07-16T08:26:55;3.65;;;1.80;;
18685;SDS011;9473;52.342;13.110;2023-07-16T08:29:22;7.28;;;2.03;;
18685;SDS011;9473;52.342;13.110;2023-07-16T08:31:49;4.28;;;1.88;;
18685;SDS011;9473;52.342;13.110;2023-07-16T08:34:16;3.33;;;1.90;;
18685;SDS011;9473;52.342;13.110;2023-07-16T08:36:43;5.10;;;2.03;;
18685;SDS011;9473;52.342;13.110;2023-07-16T08:39:11;5.47;;;2.00;;
18685;SDS011;9473;52.342;13.110;2023-07-16T08:41:38;6.60;;;1.98;;
18685;SDS011;9473;52.342;13.110;2023-07-16T08:44:05;6.70;;;2.53;;
18685;SDS011;9473;52.342;13.110;2023-07-16T08:46:32;5.13;;;2.20;;
18685;SDS011;9473;52.342;13.110;2023-07-16T08:48:59;4.20;;;2.08;;
18685;SDS011;9473;52.342;13.110;2023-07-16T08:51:26;4.18;;;2.20;;
18685;SDS011;9473;52.342;13.110;2023-07-16T08:53:53;3.47;;;2.53;;
18685;SDS011;9473;52.342;13.110;2023-07-16T08:56:21;5.40;;;2.65;;
18685;SDS011;9473;52.342;13.110;2023-07-16T08:58:48;3.47;;;2.35;;
18685;SDS011;9473;52.342;13.110;2023-07-16T09:01:15;4.03;;;2.20;;
18685;SDS011;9473;52.342;13.110;2023-07-16T09:03:43;4.07;;;2.47;;
18685;SDS011;9473;52.342;13.110;2023-07-16T09:06:11;5.65;;;2.00;;
18685;SDS011;9473;52.342;13.110;2023-07-16T09:08:38;4.40;;;2.47;;
18685;SDS011;9473;52.342;13.110;2023-07-16T09:11:05;7.65;;;2.50;;
18685;SDS011;9473;52.342;13.110;2023-07-16T09:13:33;4.97;;;2.50;;
18685;SDS011;9473;52.342;13.110;2023-07-16T09:16:00;4.50;;;2.40;;
18685;SDS011;9473;52.342;13.110;2023-07-16T09:18:28;4.35;;;2.85;;
18685;SDS011;9473;52.342;13.110;2023-07-16T09:20:55;3.33;;;2.60;;
18685;SDS011;9473;52.342;13.110;2023-07-16T09:23:23;4.40;;;2.70;;
18685;SDS011;9473;52.342;13.110;2023-07-16T09:25:51;3.20;;;2.00;;
18685;SDS011;9473;52.342;13.110;2023-07-16T09:28:18;5.03;;;2.40;;
18685;SDS011;9473;52.342;13.110;2023-07-16T09:30:47;3.35;;;2.17;;
18685;SDS011;9473;52.342;13.110;2023-07-16T09:33:14;4.53;;;2.47;;
18685;SDS011;9473;52.342;13.110;2023-07-16T09:35:41;4.68;;;2.15;;
18685;SDS011;9473;52.342;13.110;2023-07-16T09:38:08;6.70;;;2.20;;
18685;SDS011;9473;52.342;13.110;2023-07-16T09:40:35;3.88;;;2.13;;
18685;SDS011;9473;52.342;13.110;2023-07-16T09:43:03;2.97;;;1.90;;
18685;SDS011;9473;52.342;13.110;2023-07-16T09:45:30;3.70;;;2.10;;
18685;SDS011;9473;52.342;13.110;2023-07-16T09:47:58;6.63;;;2.63;;
18685;SDS011;9473;52.342;13.110;2023-07-16T09:50:26;2.78;;;2.17;;
18685;SDS011;9473;52.342;13.110;2023-07-16T09:52:54;4.40;;;2.05;;
18685;SDS011;9473;52.342;13.110;2023-07-16T09:55:22;3.20;;;1.75;;
18685;SDS011;9473;52.342;13.110;2023-07-16T09:57:50;8.30;;;3.13;;
18685;SDS011;9473;52.342;13.110;2023-07-16T10:00:18;3.75;;;2.03;;
18685;SDS011;9473;52.342;13.110;2023-07-16T10:02:46;5.80;;;2.42;;
18685;SDS011;9473;52.342;13.110;2023-07-16T10:05:15;5.35;;;2.55;;
18685;SDS011;9473;52.342;13.110;2023-07-16T10:07:42;4.18;;;2.00;;
18685;SDS011;9473;52.342;13.110;2023-07-16T10:10:09;5.05;;;2.22;;
18685;SDS011;9473;52.342;13.110;2023-07-16T10:12:37;3.25;;;2.08;;
18685;SDS011;9473;52.342;13.110;2023-07-16T10:15:04;4.35;;;2.53;;
18685;SDS011;9473;52.342;13.110;2023-07-16T10:17:32;6.00;;;2.20;;
18685;SDS011;9473;52.342;13.110;2023-07-16T10:19:59;4.90;;;2.33;;
18685;SDS011;9473;52.342;13.110;2023-07-16T10:22:33;3.78;;;2.38;;
18685;SDS011;9473;52.342;13.110;2023-07-16T10:25:00;4.97;;;2.35;;
18685;SDS011;9473;52.342;13.110;2023-07-16T10:27:28;5.28;;;2.30;;
18685;SDS011;9473;52.342;13.110;2023-07-16T10:29:55;4.80;;;2.20;;
18685;SDS011;9473;52.342;13.110;2023-07-16T10:32:22;4.13;;;2.58;;
18685;SDS011;9473;52.342;13.110;2023-07-16T10:34:52;5.07;;;2.35;;
18685;SDS011;9473;52.342;13.110;2023-07-16T10:37:19;4.20;;;2.25;;
18685;SDS011;9473;52.342;13.110;2023-07-16T10:39:47;4.05;;;2.22;;
18685;SDS011;9473;52.342;13.110;2023-07-16T10:42:15;6.20;;;1.95;;
18685;SDS011;9473;52.342;13.110;2023-07-16T10:44:42;4.85;;;2.28;;
18685;SDS011;9473;52.342;13.110;2023-07-16T10:47:10;4.60;;;2.60;;
18685;SDS011;9473;52.342;13.110;2023-07-16T10:49:36;4.72;;;2.25;;
18685;SDS011;9473;52.342;13.110;2023-07-16T10:52:04;3.03;;;2.30;;
18685;SDS011;9473;52.342;13.110;2023-07-16T10:54:31;3.00;;;2.10;;
18685;SDS011;9473;52.342;13.110;2023-07-16T10:56:59;4.28;;;2.20;;
18685;SDS011;9473;52.342;13.110;2023-07-16T10:59:26;3.20;;;2.30;;
18685;SDS011;9473;52.342;13.110;2023-07-16T11:01:53;4.80;;;2.40;;
18685;SDS011;9473;52.342;13.110;2023-07-16T11:04:20;4.30;;;2.08;;
18685;SDS011;9473;52.342;13.110;2023-07-16T11:06:49;2.60;;;1.75;;
18685;SDS011;9473;52.342;13.110;2023-07-16T11:09:17;5.22;;;1.80;;
18685;SDS011;9473;52.342;13.110;2023-07-16T11:11:44;4.72;;;1.90;;
18685;SDS011;9473;52.342;13.110;2023-07-16T11:14:12;2.58;;;1.50;;
18685;SDS011;9473;52.342;13.110;2023-07-16T11:16:39;2.95;;;1.63;;
18685;SDS011;9473;52.342;13.110;2023-07-16T11:19:06;3.58;;;1.80;;
18685;SDS011;9473;52.342;13.110;2023-07-16T11:21:33;4.50;;;1.80;;
18685;SDS011;9473;52.342;13.110;2023-07-16T11:24:07;5.43;;;1.70;;
18685;SDS011;9473;52.342;13.110;2023-07-16T11:26:34;5.45;;;1.65;;
18685;SDS011;9473;52.342;13.110;2023-07-16T11:29:01;5.43;;;1.73;;
18685;SDS011;9473;52.342;13.110;2023-07-16T11:31:40;5.63;;;1.63;;
18685;SDS011;9473;52.342;13.110;2023-07-16T11:34:07;3.80;;;1.90;;
18685;SDS011;9473;52.342;13.110;2023-07-16T11:36:34;5.65;;;1.90;;
18685;SDS011;9473;52.342;13.110;2023-07-16T11:39:02;4.15;;;1.75;;
18685;SDS011;9473;52.342;13.110;2023-07-16T11:41:29;3.92;;;1.60;;
18685;SDS011;9473;52.342;13.110;2023-07-16T11:43:58;2.65;;;1.60;;
18685;SDS011;9473;52.342;13.110;2023-07-16T11:46:25;6.22;;;1.60;;
18685;SDS011;9473;52.342;13.110;2023-07-16T11:48:58;5.30;;;1.60;;
18685;SDS011;9473;52.342;13.110;2023-07-16T11:51:25;6.07;;;1.50;;
18685;SDS011;9473;52.342;13.110;2023-07-16T11:53:53;3.90;;;1.70;;
18685;SDS011;9473;52.342;13.110;2023-07-16T11:56:20;4.47;;;1.65;;
18685;SDS011;9473;52.342;13.110;2023-07-16T11:58:48;4.70;;;1.83;;
18685;SDS011;9473;52.342;13.110;2023-07-16T12:01:15;5.07;;;1.80;;
18685;SDS011;9473;52.342;13.110;2023-07-16T12:03:42;2.65;;;1.75;;
18685;SDS011;9473;52.342;13.110;2023-07-16T12:06:10;3.08;;;1.60;;
18685;SDS011;9473;52.342;13.110;2023-07-16T12:08:37;3.70;;;1.90;;
18685;SDS011;9473;52.342;13.110;2023-07-16T12:11:04;3.38;;;1.45;;
18685;SDS011;9473;52.342;13.110;2023-07-16T12:13:31;2.47;;;1.60;;
18685;SDS011;9473;52.342;13.110;2023-07-16T12:15:58;4.35;;;1.88;;
18685;SDS011;9473;52.342;13.110;2023-07-16T12:18:25;2.60;;;1.60;;
18685;SDS011;9473;52.342;13.110;2023-07-16T12:20:52;5.30;;;1.70;;
18685;SDS011;9473;52.342;13.110;2023-07-16T12:23:20;4.43;;;1.70;;
18685;SDS011;9473;52.342;13.110;2023-07-16T12:25:47;2.85;;;1.60;;
18685;SDS011;9473;52.342;13.110;2023-07-16T12:28:14;4.10;;;1.60;;
18685;SDS011;9473;52.342;13.110;2023-07-16T12:30:41;3.80;;;1.40;;
18685;SDS011;9473;52.342;13.110;2023-07-16T12:33:08;4.13;;;1.65;;
18685;SDS011;9473;52.342;13.110;2023-07-16T12:35:35;5.18;;;1.67;;
18685;SDS011;9473;52.342;13.110;2023-07-16T12:38:02;4.80;;;1.65;;
18685;SDS011;9473;52.342;13.110;2023-07-16T12:40:30;2.55;;;1.40;;
18685;SDS011;9473;52.342;13.110;2023-07-16T12:43:04;7.00;;;1.70;;
18685;SDS011;9473;52.342;13.110;2023-07-16T12:45:31;3.45;;;1.65;;
18685;SDS011;9473;52.342;13.110;2023-07-16T12:47:58;2.58;;;1.60;;
18685;SDS011;9473;52.342;13.110;2023-07-16T12:50:25;7.30;;;1.70;;
18685;SDS011;9473;52.342;13.110;2023-07-16T12:52:54;5.88;;;1.90;;
18685;SDS011;9473;52.342;13.110;2023-07-16T12:55:21;4.13;;;1.60;;
18685;SDS011;9473;52.342;13.110;2023-07-16T12:57:50;3.78;;;1.75;;
18685;SDS011;9473;52.342;13.110;2023-07-16T13:00:17;3.38;;;1.70;;
18685;SDS011;9473;52.342;13.110;2023-07-16T13:02:44;3.17;;;1.50;;
18685;SDS011;9473;52.342;13.110;2023-07-16T13:05:11;5.30;;;1.67;;
18685;SDS011;9473;52.342;13.110;2023-07-16T13:07:38;2.33;;;1.30;;
18685;SDS011;9473;52.342;13.110;2023-07-16T13:10:05;2.10;;;1.40;;
18685;SDS011;9473;52.342;13.110;2023-07-16T13:12:32;8.73;;;1.73;;
18685;SDS011;9473;52.342;13.110;2023-07-16T13:15:01;2.67;;;1.33;;
18685;SDS011;9473;52.342;13.110;2023-07-16T13:17:28;5.07;;;1.60;;
18685;SDS011;9473;52.342;13.110;2023-07-16T13:19:55;4.93;;;1.83;;
18685;SDS011;9473;52.342;13.110;2023-07-16T13:22:21;3.03;;;1.63;;
18685;SDS011;9473;52.342;13.110;2023-07-16T13:24:48;4.00;;;1.60;;
18685;SDS011;9473;52.342;13.110;2023-07-16T13:27:21;2.58;;;1.48;;
18685;SDS011;9473;52.342;13.110;2023-07-16T13:29:48;3.75;;;1.65;;
18685;SDS011;9473;52.342;13.110;2023-07-16T13:32:17;2.95;;;1.40;;
18685;SDS011;9473;52.342;13.110;2023-07-16T13:34:44;3.00;;;1.30;;
18685;SDS011;9473;52.342;13.110;2023-07-16T13:37:11;3.15;;;1.30;;
18685;SDS011;9473;52.342;13.110;2023-07-16T13:39:39;3.38;;;1.65;;
18685;SDS011;9473;52.342;13.110;2023-07-16T13:42:06;5.43;;;1.58;;
18685;SDS011;9473;52.342;13.110;2023-07-16T13:44:32;3.47;;;1.33;;
18685;SDS011;9473;52.342;13.110;2023-07-16T13:46:59;5.32;;;1.65;;
18685;SDS011;9473;52.342;13.110;2023-07-16T13:49:28;3.58;;;1.50;;
18685;SDS011;9473;52.342;13.110;2023-07-16T13:51:55;2.70;;;1.23;;
18685;SDS011;9473;52.342;13.110;2023-07-16T13:54:22;2.50;;;1.30;;
18685;SDS011;9473;52.342;13.110;2023-07-16T13:56:49;3.15;;;1.58;;
18685;SDS011;9473;52.342;13.110;2023-07-16T13:59:16;6.20;;;1.40;;
18685;SDS011;9473;52.342;13.110;2023-07-16T14:01:42;4.78;;;1.38;;
18685;SDS011;9473;52.342;13.110;2023-07-16T14:04:09;4.88;;;1.65;;
18685;SDS011;9473;52.342;13.110;2023-07-16T14:06:38;2.42;;;1.50;;
18685;SDS011;9473;52.342;13.110;2023-07-16T14:09:05;2.65;;;1.38;;
18685;SDS011;9473;52.342;13.110;2023-07-16T14:11:32;3.55;;;1.40;;
18685;SDS011;9473;52.342;13.110;2023-07-16T14:13:59;3.55;;;1.33;;
18685;SDS011;9473;52.342;13.110;2023-07-16T14:16:27;3.85;;;1.48;;
18685;SDS011;9473;52.342;13.110;2023-07-16T14:18:54;3.17;;;1.52;;
18685;SDS011;9473;52.342;13.110;2023-07-16T14:21:21;2.20;;;1.20;;
18685;SDS011;9473;52.342;13.110;2023-07-16T14:23:51;3.65;;;1.40;;
18685;SDS011;9473;52.342;13.110;2023-07-16T14:26:18;4.18;;;1.38;;
18685;SDS011;9473;52.342;13.110;2023-07-16T14:28:45;3.50;;;1.40;;
18685;SDS011;9473;52.342;13.110;2023-07-16T14:31:12;2.70;;;1.48;;
18685;SDS011;9473;52.342;13.110;2023-07-16T14:33:39;4.03;;;1.30;;
18685;SDS011;9473;52.342;13.110;2023-07-16T14:36:06;3.03;;;1.38;;
18685;SDS011;9473;52.342;13.110;2023-07-16T14:38:33;3.63;;;1.67;;
18685;SDS011;9473;52.342;13.110;2023-07-16T14:41:01;2.90;;;1.42;;
18685;SDS011;9473;52.342;13.110;2023-07-16T14:43:28;3.65;;;1.20;;
18685;SDS011;9473;52.342;13.110;2023-07-16T14:45:55;4.85;;;1.42;;
18685;SDS011;9473;52.342;13.110;2023-07-16T14:48:22;5.82;;;1.38;;